PWSweather.com
Personal Weather Stations
Station Observations
KFLSEBAS1
Sebastian Highlands, Sebastian, FL 32958-4362

Sebastian HighlandsSebastian, FL 32958-4362

Lat: 27.8, Lon: -80.48

Elevation: 23

Station Type: Davis Weather Monitor II

www.kflsebas1.com

High Low Average
Temperature 86.4°F30.2°C 75.0°F23.9°C 80.3°F26.8°C
Dew Point 84.4°F29.1°C 72.3°F22.4°C 75.2°F24.0°C
Winds 8.0 mph 12.9 kmh Calm Calm 1.0 mph SSW1.6 kmh SSW
Wind Gusts 13.0 mph20.9 kmh -- 3.0 mph4.8 kmh
Humidity 100% 74% 85%
Pressure 30.10 in1019.3 mb 30.03 in1016.9 mb -
Precipitation 0.00 in0.0 mm - -
Hour Temp Dew Point Humidity Winds Wind Gusts Pressure Precip Precip Rate Daily Precip Total
12:00 AM 80.0°F26.7°C 72.9°F22.7°C 79% Calm Calm -- 30.10 in1019.3 mb 0.00 in0.0 mm 0.00 in0.0 mm 0.00 in0.0 mm
12:05 AM 79.9°F26.6°C 73.6°F23.1°C 81% Calm Calm -- 30.10 in1019.3 mb 0.00 in0.0 mm 0.00 in0.0 mm 0.00 in0.0 mm
12:10 AM 80.0°F26.7°C 72.9°F22.7°C 79% Calm Calm -- 30.09 in1019.0 mb 0.00 in0.0 mm 0.00 in0.0 mm 0.00 in0.0 mm
12:15 AM 79.9°F26.6°C 72.8°F22.7°C 79% Calm Calm -- 30.09 in1019.0 mb 0.00 in0.0 mm 0.00 in0.0 mm 0.00 in0.0 mm
12:20 AM 79.9°F26.6°C 72.8°F22.7°C 79% Calm Calm -- 30.10 in1019.3 mb 0.00 in0.0 mm 0.00 in0.0 mm 0.00 in0.0 mm
12:25 AM 79.8°F26.6°C 73.1°F22.8°C 80% Calm Calm -- 30.10 in1019.3 mb 0.00 in0.0 mm 0.00 in0.0 mm 0.00 in0.0 mm
12:30 AM 79.8°F26.6°C 72.7°F22.6°C 79% Calm Calm -- 30.09 in1019.0 mb 0.00 in0.0 mm 0.00 in0.0 mm 0.00 in0.0 mm
12:35 AM 79.7°F26.5°C 73.4°F23.0°C 81% Calm Calm -- 30.10 in1019.3 mb 0.00 in0.0 mm 0.00 in0.0 mm 0.00 in0.0 mm
12:40 AM 79.7°F26.5°C 73.4°F23.0°C 81% Calm Calm -- 30.09 in1019.0 mb 0.00 in0.0 mm 0.00 in0.0 mm 0.00 in0.0 mm
12:45 AM 79.6°F26.4°C 74.0°F23.3°C 83% Calm Calm -- 30.09 in1019.0 mb 0.00 in0.0 mm 0.00 in0.0 mm 0.00 in0.0 mm
12:50 AM 79.6°F26.4°C 73.6°F23.1°C 82% Calm Calm -- 30.09 in1019.0 mb 0.00 in0.0 mm 0.00 in0.0 mm 0.00 in0.0 mm
12:55 AM 79.5°F26.4°C 72.8°F22.7°C 80% Calm Calm -- 30.08 in1018.6 mb 0.00 in0.0 mm 0.00 in0.0 mm 0.00 in0.0 mm
01:00 AM 79.5°F26.4°C 72.8°F22.7°C 80% Calm Calm -- 30.09 in1019.0 mb 0.00 in0.0 mm 0.00 in0.0 mm 0.00 in0.0 mm
01:05 AM 79.6°F26.4°C 73.6°F23.1°C 82% Calm Calm -- 30.09 in1019.0 mb 0.00 in0.0 mm 0.00 in0.0 mm 0.00 in0.0 mm
01:10 AM 79.6°F26.4°C 73.3°F22.9°C 81% Calm Calm -- 30.09 in1019.0 mb 0.00 in0.0 mm 0.00 in0.0 mm 0.00 in0.0 mm
01:15 AM 79.6°F26.4°C 73.3°F22.9°C 81% Calm Calm -- 30.09 in1019.0 mb 0.00 in0.0 mm 0.00 in0.0 mm 0.00 in0.0 mm
01:20 AM 79.5°F26.4°C 73.2°F22.9°C 81% Calm Calm -- 30.08 in1018.6 mb 0.00 in0.0 mm 0.00 in0.0 mm 0.00 in0.0 mm
01:25 AM 79.5°F26.4°C 73.5°F23.1°C 82% Calm Calm -- 30.08 in1018.6 mb 0.00 in0.0 mm 0.00 in0.0 mm 0.00 in0.0 mm
01:30 AM 79.5°F26.4°C 73.5°F23.1°C 82% Calm Calm -- 30.08 in1018.6 mb 0.00 in0.0 mm 0.00 in0.0 mm 0.00 in0.0 mm
01:35 AM 79.4°F26.3°C 73.4°F23.0°C 82% Calm Calm -- 30.07 in1018.3 mb 0.00 in0.0 mm 0.00 in0.0 mm 0.00 in0.0 mm
01:40 AM 79.4°F26.3°C 73.4°F23.0°C 82% Calm Calm -- 30.07 in1018.3 mb 0.00 in0.0 mm 0.00 in0.0 mm 0.00 in0.0 mm
01:45 AM 79.4°F26.3°C 73.8°F23.2°C 83% Calm Calm -- 30.08 in1018.6 mb 0.00 in0.0 mm 0.00 in0.0 mm 0.00 in0.0 mm
01:50 AM 79.3°F26.3°C 73.7°F23.2°C 83% Calm Calm -- 30.07 in1018.3 mb 0.00 in0.0 mm 0.00 in0.0 mm 0.00 in0.0 mm
01:55 AM 79.3°F26.3°C 73.7°F23.2°C 83% Calm Calm -- 30.06 in1017.9 mb 0.00 in0.0 mm 0.00 in0.0 mm 0.00 in0.0 mm
02:00 AM 79.4°F26.3°C 74.2°F23.4°C 84% Calm Calm -- 30.07 in1018.3 mb 0.00 in0.0 mm 0.00 in0.0 mm 0.00 in0.0 mm
02:05 AM 79.3°F26.3°C 74.1°F23.4°C 84% Calm Calm -- 30.06 in1017.9 mb 0.00 in0.0 mm 0.00 in0.0 mm 0.00 in0.0 mm
02:10 AM 79.3°F26.3°C 74.1°F23.4°C 84% Calm Calm -- 30.06 in1017.9 mb 0.00 in0.0 mm 0.00 in0.0 mm 0.00 in0.0 mm
02:15 AM 79.3°F26.3°C 74.4°F23.6°C 85% Calm Calm -- 30.06 in1017.9 mb 0.00 in0.0 mm 0.00 in0.0 mm 0.00 in0.0 mm
02:20 AM 79.3°F26.3°C 74.4°F23.6°C 85% Calm Calm -- 30.05 in1017.6 mb 0.00 in0.0 mm 0.00 in0.0 mm 0.00 in0.0 mm
02:25 AM 79.3°F26.3°C 74.4°F23.6°C 85% Calm Calm -- 30.06 in1017.9 mb 0.00 in0.0 mm 0.00 in0.0 mm 0.00 in0.0 mm
02:30 AM 79.2°F26.2°C 74.3°F23.5°C 85% Calm Calm -- 30.05 in1017.6 mb 0.00 in0.0 mm 0.00 in0.0 mm 0.00 in0.0 mm
02:35 AM 79.1°F26.2°C 74.2°F23.4°C 85% Calm Calm -- 30.05 in1017.6 mb 0.00 in0.0 mm 0.00 in0.0 mm 0.00 in0.0 mm
02:40 AM 79.1°F26.2°C 74.2°F23.4°C 85% Calm Calm -- 30.05 in1017.6 mb 0.00 in0.0 mm 0.00 in0.0 mm 0.00 in0.0 mm
02:45 AM 79.0°F26.1°C 74.1°F23.4°C 85% Calm Calm -- 30.06 in1017.9 mb 0.00 in0.0 mm 0.00 in0.0 mm 0.00 in0.0 mm
02:50 AM 78.9°F26.1°C 74.0°F23.3°C 85% Calm Calm -- 30.05 in1017.6 mb 0.00 in0.0 mm 0.00 in0.0 mm 0.00 in0.0 mm
02:55 AM 78.8°F26.0°C 74.3°F23.5°C 86% Calm Calm -- 30.04 in1017.3 mb 0.00 in0.0 mm 0.00 in0.0 mm 0.00 in0.0 mm
03:00 AM 78.7°F25.9°C 74.2°F23.4°C 86% Calm Calm -- 30.04 in1017.3 mb 0.00 in0.0 mm 0.00 in0.0 mm 0.00 in0.0 mm
03:05 AM 78.6°F25.9°C 74.1°F23.4°C 86% Calm Calm -- 30.05 in1017.6 mb 0.00 in0.0 mm 0.00 in0.0 mm 0.00 in0.0 mm
03:10 AM 78.5°F25.8°C 74.0°F23.3°C 86% Calm Calm -- 30.05 in1017.6 mb 0.00 in0.0 mm 0.00 in0.0 mm 0.00 in0.0 mm
03:15 AM 78.5°F25.8°C 74.3°F23.5°C 87% Calm Calm -- 30.05 in1017.6 mb 0.00 in0.0 mm 0.00 in0.0 mm 0.00 in0.0 mm
03:20 AM 78.4°F25.8°C 74.2°F23.4°C 87% Calm Calm -- 30.04 in1017.3 mb 0.00 in0.0 mm 0.00 in0.0 mm 0.00 in0.0 mm
03:25 AM 78.4°F25.8°C 74.2°F23.4°C 87% Calm Calm -- 30.04 in1017.3 mb 0.00 in0.0 mm 0.00 in0.0 mm 0.00 in0.0 mm
03:30 AM 78.3°F25.7°C 74.1°F23.4°C 87% Calm Calm -- 30.04 in1017.3 mb 0.00 in0.0 mm 0.00 in0.0 mm 0.00 in0.0 mm
03:35 AM 78.3°F25.7°C 74.1°F23.4°C 87% Calm Calm -- 30.04 in1017.3 mb 0.00 in0.0 mm 0.00 in0.0 mm 0.00 in0.0 mm
03:40 AM 78.2°F25.7°C 74.4°F23.6°C 88% Calm Calm -- 30.04 in1017.3 mb 0.00 in0.0 mm 0.00 in0.0 mm 0.00 in0.0 mm
03:45 AM 78.2°F25.7°C 74.4°F23.6°C 88% Calm Calm -- 30.04 in1017.3 mb 0.00 in0.0 mm 0.00 in0.0 mm 0.00 in0.0 mm
03:50 AM 78.1°F25.6°C 73.9°F23.3°C 87% Calm Calm -- 30.04 in1017.3 mb 0.00 in0.0 mm 0.00 in0.0 mm 0.00 in0.0 mm
03:55 AM 78.1°F25.6°C 73.9°F23.3°C 87% Calm Calm -- 30.04 in1017.3 mb 0.00 in0.0 mm 0.00 in0.0 mm 0.00 in0.0 mm
04:00 AM 78.1°F25.6°C 73.9°F23.3°C 87% Calm Calm -- 30.04 in1017.3 mb 0.00 in0.0 mm 0.00 in0.0 mm 0.00 in0.0 mm
04:05 AM 78.0°F25.6°C 73.8°F23.2°C 87% Calm Calm -- 30.04 in1017.3 mb 0.00 in0.0 mm 0.00 in0.0 mm 0.00 in0.0 mm
04:10 AM 78.0°F25.6°C 74.2°F23.4°C 88% Calm Calm -- 30.04 in1017.3 mb 0.00 in0.0 mm 0.00 in0.0 mm 0.00 in0.0 mm
04:15 AM 78.0°F25.6°C 74.2°F23.4°C 88% Calm Calm -- 30.04 in1017.3 mb 0.00 in0.0 mm 0.00 in0.0 mm 0.00 in0.0 mm
04:20 AM 78.0°F25.6°C 74.2°F23.4°C 88% Calm Calm -- 30.04 in1017.3 mb 0.00 in0.0 mm 0.00 in0.0 mm 0.00 in0.0 mm
04:25 AM 77.9°F25.5°C 74.1°F23.4°C 88% Calm Calm -- 30.04 in1017.3 mb 0.00 in0.0 mm 0.00 in0.0 mm 0.00 in0.0 mm
04:30 AM 77.9°F25.5°C 74.1°F23.4°C 88% Calm Calm -- 30.04 in1017.3 mb 0.00 in0.0 mm 0.00 in0.0 mm 0.00 in0.0 mm
04:35 AM 77.8°F25.4°C 74.0°F23.3°C 88% Calm Calm -- 30.04 in1017.3 mb 0.00 in0.0 mm 0.00 in0.0 mm 0.00 in0.0 mm
04:40 AM 77.8°F25.4°C 74.0°F23.3°C 88% Calm Calm -- 30.04 in1017.3 mb 0.00 in0.0 mm 0.00 in0.0 mm 0.00 in0.0 mm
04:45 AM 77.8°F25.4°C 74.0°F23.3°C 88% Calm Calm -- 30.04 in1017.3 mb 0.00 in0.0 mm 0.00 in0.0 mm 0.00 in0.0 mm
04:50 AM 77.7°F25.4°C 73.9°F23.3°C 88% Calm Calm -- 30.04 in1017.3 mb 0.00 in0.0 mm 0.00 in0.0 mm 0.00 in0.0 mm
04:55 AM 77.7°F25.4°C 73.9°F23.3°C 88% Calm Calm -- 30.05 in1017.6 mb 0.00 in0.0 mm 0.00 in0.0 mm 0.00 in0.0 mm
05:00 AM 77.6°F25.3°C 73.8°F23.2°C 88% Calm Calm -- 30.05 in1017.6 mb 0.00 in0.0 mm 0.00 in0.0 mm 0.00 in0.0 mm
05:05 AM 77.5°F25.3°C 74.0°F23.3°C 89% Calm Calm -- 30.05 in1017.6 mb 0.00 in0.0 mm 0.00 in0.0 mm 0.00 in0.0 mm
05:10 AM 77.5°F25.3°C 74.0°F23.3°C 89% Calm Calm -- 30.04 in1017.3 mb 0.00 in0.0 mm 0.00 in0.0 mm 0.00 in0.0 mm
05:15 AM 77.4°F25.2°C 73.9°F23.3°C 89% Calm Calm -- 30.04 in1017.3 mb 0.00 in0.0 mm 0.00 in0.0 mm 0.00 in0.0 mm
05:20 AM 77.4°F25.2°C 73.9°F23.3°C 89% Calm Calm -- 30.05 in1017.6 mb 0.00 in0.0 mm 0.00 in0.0 mm 0.00 in0.0 mm
05:25 AM 77.3°F25.2°C 74.1°F23.4°C 90% Calm Calm -- 30.05 in1017.6 mb 0.00 in0.0 mm 0.00 in0.0 mm 0.00 in0.0 mm
05:30 AM 77.2°F25.1°C 73.7°F23.2°C 89% Calm Calm -- 30.04 in1017.3 mb 0.00 in0.0 mm 0.00 in0.0 mm 0.00 in0.0 mm
05:35 AM 77.2°F25.1°C 73.7°F23.2°C 89% Calm Calm -- 30.04 in1017.3 mb 0.00 in0.0 mm 0.00 in0.0 mm 0.00 in0.0 mm
05:40 AM 77.1°F25.1°C 73.6°F23.1°C 89% Calm Calm -- 30.05 in1017.6 mb 0.00 in0.0 mm 0.00 in0.0 mm 0.00 in0.0 mm
05:45 AM 77.1°F25.1°C 73.6°F23.1°C 89% Calm Calm -- 30.05 in1017.6 mb 0.00 in0.0 mm 0.00 in0.0 mm 0.00 in0.0 mm
05:50 AM 77.0°F25.0°C 73.5°F23.1°C 89% Calm Calm -- 30.05 in1017.6 mb 0.00 in0.0 mm 0.00 in0.0 mm 0.00 in0.0 mm
05:55 AM 77.0°F25.0°C 73.5°F23.1°C 89% Calm Calm -- 30.05 in1017.6 mb 0.00 in0.0 mm 0.00 in0.0 mm 0.00 in0.0 mm
06:00 AM 76.9°F24.9°C 73.4°F23.0°C 89% Calm Calm -- 30.05 in1017.6 mb 0.00 in0.0 mm 0.00 in0.0 mm 0.00 in0.0 mm
06:05 AM 76.9°F24.9°C 73.4°F23.0°C 89% Calm Calm -- 30.05 in1017.6 mb 0.00 in0.0 mm 0.00 in0.0 mm 0.00 in0.0 mm
06:10 AM 76.7°F24.8°C 73.2°F22.9°C 89% Calm Calm -- 30.05 in1017.6 mb 0.00 in0.0 mm 0.00 in0.0 mm 0.00 in0.0 mm
06:15 AM 76.5°F24.7°C 73.0°F22.8°C 89% Calm Calm -- 30.06 in1017.9 mb 0.00 in0.0 mm 0.00 in0.0 mm 0.00 in0.0 mm
06:20 AM 76.5°F24.7°C 73.0°F22.8°C 89% Calm Calm -- 30.05 in1017.6 mb 0.00 in0.0 mm 0.00 in0.0 mm 0.00 in0.0 mm
06:25 AM 76.4°F24.7°C 73.3°F22.9°C 90% Calm Calm -- 30.05 in1017.6 mb 0.00 in0.0 mm 0.00 in0.0 mm 0.00 in0.0 mm
06:30 AM 76.4°F24.7°C 72.9°F22.7°C 89% Calm Calm -- 30.05 in1017.6 mb 0.00 in0.0 mm 0.00 in0.0 mm 0.00 in0.0 mm
06:35 AM 76.3°F24.6°C 72.8°F22.7°C 89% Calm Calm -- 30.05 in1017.6 mb 0.00 in0.0 mm 0.00 in0.0 mm 0.00 in0.0 mm
06:40 AM 76.3°F24.6°C 73.2°F22.9°C 90% Calm Calm -- 30.05 in1017.6 mb 0.00 in0.0 mm 0.00 in0.0 mm 0.00 in0.0 mm
06:45 AM 76.3°F24.6°C 73.2°F22.9°C 90% Calm Calm -- 30.06 in1017.9 mb 0.00 in0.0 mm 0.00 in0.0 mm 0.00 in0.0 mm
06:50 AM 76.2°F24.6°C 73.1°F22.8°C 90% Calm Calm -- 30.06 in1017.9 mb 0.00 in0.0 mm 0.00 in0.0 mm 0.00 in0.0 mm
06:55 AM 76.2°F24.6°C 73.1°F22.8°C 90% Calm Calm -- 30.06 in1017.9 mb 0.00 in0.0 mm 0.00 in0.0 mm 0.00 in0.0 mm
07:00 AM 76.2°F24.6°C 73.1°F22.8°C 90% Calm Calm -- 30.06 in1017.9 mb 0.00 in0.0 mm 0.00 in0.0 mm 0.00 in0.0 mm
07:05 AM 76.2°F24.6°C 73.1°F22.8°C 90% Calm Calm -- 30.06 in1017.9 mb 0.00 in0.0 mm 0.00 in0.0 mm 0.00 in0.0 mm
07:10 AM 76.3°F24.6°C 73.2°F22.9°C 90% Calm Calm -- 30.06 in1017.9 mb 0.00 in0.0 mm 0.00 in0.0 mm 0.00 in0.0 mm
07:15 AM 76.4°F24.7°C 73.3°F22.9°C 90% Calm Calm -- 30.07 in1018.3 mb 0.00 in0.0 mm 0.00 in0.0 mm 0.00 in0.0 mm
07:20 AM 76.6°F24.8°C 73.8°F23.2°C 91% Calm Calm -- 30.06 in1017.9 mb 0.00 in0.0 mm 0.00 in0.0 mm 0.00 in0.0 mm
07:25 AM 76.6°F24.8°C 73.5°F23.1°C 90% Calm Calm -- 30.06 in1017.9 mb 0.00 in0.0 mm 0.00 in0.0 mm 0.00 in0.0 mm
07:30 AM 76.6°F24.8°C 73.5°F23.1°C 90% Calm Calm -- 30.06 in1017.9 mb 0.00 in0.0 mm 0.00 in0.0 mm 0.00 in0.0 mm
07:35 AM 76.7°F24.8°C 73.6°F23.1°C 90% Calm Calm -- 30.06 in1017.9 mb 0.00 in0.0 mm 0.00 in0.0 mm 0.00 in0.0 mm
07:40 AM 76.7°F24.8°C 73.6°F23.1°C 90% Calm Calm -- 30.06 in1017.9 mb 0.00 in0.0 mm 0.00 in0.0 mm 0.00 in0.0 mm
07:45 AM 76.8°F24.9°C 74.0°F23.3°C 91% Calm Calm -- 30.06 in1017.9 mb 0.00 in0.0 mm 0.00 in0.0 mm 0.00 in0.0 mm
07:50 AM 77.0°F25.0°C 74.2°F23.4°C 91% Calm Calm -- 30.07 in1018.3 mb 0.00 in0.0 mm 0.00 in0.0 mm 0.00 in0.0 mm
07:55 AM 77.1°F25.1°C 74.3°F23.5°C 91% Calm Calm -- 30.07 in1018.3 mb 0.00 in0.0 mm 0.00 in0.0 mm 0.00 in0.0 mm
08:00 AM 77.3°F25.2°C 74.5°F23.6°C 91% Calm Calm -- 30.06 in1017.9 mb 0.00 in0.0 mm 0.00 in0.0 mm 0.00 in0.0 mm
08:05 AM 77.6°F25.3°C 74.8°F23.8°C 91% Calm Calm -- 30.06 in1017.9 mb 0.00 in0.0 mm 0.00 in0.0 mm 0.00 in0.0 mm
08:10 AM 77.8°F25.4°C 75.0°F23.9°C 91% Calm Calm -- 30.06 in1017.9 mb 0.00 in0.0 mm 0.00 in0.0 mm 0.00 in0.0 mm
08:15 AM 78.1°F25.6°C 75.3°F24.1°C 91% Calm Calm -- 30.06 in1017.9 mb 0.00 in0.0 mm 0.00 in0.0 mm 0.00 in0.0 mm
08:20 AM 78.3°F25.7°C 75.5°F24.2°C 91% Calm Calm -- 30.06 in1017.9 mb 0.00 in0.0 mm 0.00 in0.0 mm 0.00 in0.0 mm
08:25 AM 78.5°F25.8°C 75.3°F24.1°C 90% Calm Calm -- 30.07 in1018.3 mb 0.00 in0.0 mm 0.00 in0.0 mm 0.00 in0.0 mm
08:30 AM 78.7°F25.9°C 75.5°F24.2°C 90% Calm Calm -- 30.06 in1017.9 mb 0.00 in0.0 mm 0.00 in0.0 mm 0.00 in0.0 mm
08:35 AM 79.0°F26.1°C 75.8°F24.3°C 90% Calm Calm -- 30.07 in1018.3 mb 0.00 in0.0 mm 0.00 in0.0 mm 0.00 in0.0 mm
08:40 AM 79.2°F26.2°C 76.0°F24.4°C 90% Calm Calm -- 30.07 in1018.3 mb 0.00 in0.0 mm 0.00 in0.0 mm 0.00 in0.0 mm
08:45 AM 79.4°F26.3°C 75.9°F24.4°C 89% Calm Calm -- 30.07 in1018.3 mb 0.00 in0.0 mm 0.00 in0.0 mm 0.00 in0.0 mm
08:50 AM 79.6°F26.4°C 76.1°F24.5°C 89% Calm Calm -- 30.08 in1018.6 mb 0.00 in0.0 mm 0.00 in0.0 mm 0.00 in0.0 mm
08:55 AM 79.9°F26.6°C 76.0°F24.4°C 88% Calm Calm -- 30.07 in1018.3 mb 0.00 in0.0 mm 0.00 in0.0 mm 0.00 in0.0 mm
09:00 AM 80.1°F26.7°C 76.2°F24.6°C 88% Calm Calm -- 30.08 in1018.6 mb 0.00 in0.0 mm 0.00 in0.0 mm 0.00 in0.0 mm
09:05 AM 80.6°F27.0°C 76.4°F24.7°C 87% Calm Calm -- 30.07 in1018.3 mb 0.00 in0.0 mm 0.00 in0.0 mm 0.00 in0.0 mm
09:10 AM 80.8°F27.1°C 76.2°F24.6°C 86% Calm Calm -- 30.08 in1018.6 mb 0.00 in0.0 mm 0.00 in0.0 mm 0.00 in0.0 mm
09:15 AM 81.4°F27.4°C 78.9°F26.1°C 92% Calm Calm -- 30.08 in1018.6 mb 0.00 in0.0 mm 0.00 in0.0 mm 0.00 in0.0 mm
09:20 AM 81.7°F27.6°C 76.4°F24.7°C 84% Calm Calm -- 30.09 in1019.0 mb 0.00 in0.0 mm 0.00 in0.0 mm 0.00 in0.0 mm
09:25 AM 82.3°F27.9°C 75.9°F24.4°C 81% Calm Calm -- 30.08 in1018.6 mb 0.00 in0.0 mm 0.00 in0.0 mm 0.00 in0.0 mm
09:30 AM 82.6°F28.1°C 75.8°F24.3°C 80% Calm Calm -- 30.08 in1018.6 mb 0.00 in0.0 mm 0.00 in0.0 mm 0.00 in0.0 mm
09:35 AM 83.0°F28.3°C 80.8°F27.1°C 93% Calm Calm -- 30.08 in1018.6 mb 0.00 in0.0 mm 0.00 in0.0 mm 0.00 in0.0 mm
09:40 AM 83.4°F28.6°C 79.1°F26.2°C 87% Calm Calm -- 30.08 in1018.6 mb 0.00 in0.0 mm 0.00 in0.0 mm 0.00 in0.0 mm
09:45 AM 83.6°F28.7°C 79.0°F26.1°C 86% Calm Calm -- 30.09 in1019.0 mb 0.00 in0.0 mm 0.00 in0.0 mm 0.00 in0.0 mm
09:50 AM 84.0°F28.9°C 76.8°F24.9°C 79% Calm Calm -- 30.08 in1018.6 mb 0.00 in0.0 mm 0.00 in0.0 mm 0.00 in0.0 mm
09:55 AM 84.4°F29.1°C 76.8°F24.9°C 78% Calm Calm -- 30.08 in1018.6 mb 0.00 in0.0 mm 0.00 in0.0 mm 0.00 in0.0 mm
10:00 AM 84.4°F29.1°C 84.4°F29.1°C 100% Calm Calm -- 30.08 in1018.6 mb 0.00 in0.0 mm 0.00 in0.0 mm 0.00 in0.0 mm
10:05 AM 84.9°F29.4°C 77.7°F25.4°C 79% Calm Calm -- 30.09 in1019.0 mb 0.00 in0.0 mm 0.00 in0.0 mm 0.00 in0.0 mm
10:10 AM 85.1°F29.5°C 78.6°F25.9°C 81% Calm Calm 5.0 mph8.0 kmh 30.08 in1018.6 mb 0.00 in0.0 mm 0.00 in0.0 mm 0.00 in0.0 mm
10:15 AM 85.2°F29.6°C 76.8°F24.9°C 76% Calm Calm 5.0 mph8.0 kmh 30.08 in1018.6 mb 0.00 in0.0 mm 0.00 in0.0 mm 0.00 in0.0 mm
10:20 AM 85.3°F29.6°C 76.9°F24.9°C 76% Calm Calm 5.0 mph8.0 kmh 30.08 in1018.6 mb 0.00 in0.0 mm 0.00 in0.0 mm 0.00 in0.0 mm
10:25 AM 85.6°F29.8°C 77.6°F25.3°C 77% Calm Calm 6.0 mph9.7 kmh 30.09 in1019.0 mb 0.00 in0.0 mm 0.00 in0.0 mm 0.00 in0.0 mm
10:30 AM 85.9°F29.9°C 77.5°F25.3°C 76% Calm Calm 6.0 mph9.7 kmh 30.08 in1018.6 mb 0.00 in0.0 mm 0.00 in0.0 mm 0.00 in0.0 mm
10:35 AM 86.0°F30.0°C 76.8°F24.9°C 74% Calm Calm 6.0 mph9.7 kmh 30.08 in1018.6 mb 0.00 in0.0 mm 0.00 in0.0 mm 0.00 in0.0 mm
10:40 AM 86.1°F30.1°C 77.7°F25.4°C 76% Calm Calm 6.0 mph9.7 kmh 30.09 in1019.0 mb 0.00 in0.0 mm 0.00 in0.0 mm 0.00 in0.0 mm
10:45 AM 86.0°F30.0°C 76.8°F24.9°C 74% Calm Calm 6.0 mph9.7 kmh 30.08 in1018.6 mb 0.00 in0.0 mm 0.00 in0.0 mm 0.00 in0.0 mm
10:50 AM 85.9°F29.9°C 76.7°F24.8°C 74% Calm Calm 6.0 mph9.7 kmh 30.09 in1019.0 mb 0.00 in0.0 mm 0.00 in0.0 mm 0.00 in0.0 mm
10:55 AM 86.0°F30.0°C 77.6°F25.3°C 76% Calm Calm 6.0 mph9.7 kmh 30.09 in1019.0 mb 0.00 in0.0 mm 0.00 in0.0 mm 0.00 in0.0 mm
11:00 AM 86.2°F30.1°C 78.9°F26.1°C 79% Calm Calm -- 30.09 in1019.0 mb 0.00 in0.0 mm 0.00 in0.0 mm 0.00 in0.0 mm
11:05 AM 86.4°F30.2°C 78.3°F25.7°C 77% 5.0 mph 8.0 kmh 6.0 mph9.7 kmh 30.09 in1019.0 mb 0.00 in0.0 mm 0.00 in0.0 mm 0.00 in0.0 mm
11:10 AM 85.6°F29.8°C 77.2°F25.1°C 76% Calm Calm 8.0 mph12.9 kmh 30.09 in1019.0 mb 0.00 in0.0 mm 0.00 in0.0 mm 0.00 in0.0 mm
11:15 AM 85.0°F29.4°C 76.6°F24.8°C 76% 3.0 mph NE4.8 kmh NE 8.0 mph12.9 kmh 30.09 in1019.0 mb 0.00 in0.0 mm 0.00 in0.0 mm 0.00 in0.0 mm
11:20 AM 84.2°F29.0°C 76.6°F24.8°C 78% 5.0 mph NNE8.0 kmh NNE 10.0 mph16.1 kmh 30.09 in1019.0 mb 0.00 in0.0 mm 0.00 in0.0 mm 0.00 in0.0 mm
11:25 AM 84.2°F29.0°C 77.0°F25.0°C 79% Calm Calm 10.0 mph16.1 kmh 30.09 in1019.0 mb 0.00 in0.0 mm 0.00 in0.0 mm 0.00 in0.0 mm
11:30 AM 84.5°F29.2°C 77.3°F25.2°C 79% Calm Calm 10.0 mph16.1 kmh 30.09 in1019.0 mb 0.00 in0.0 mm 0.00 in0.0 mm 0.00 in0.0 mm
11:35 AM 84.8°F29.3°C 77.6°F25.3°C 79% Calm Calm 10.0 mph16.1 kmh 30.10 in1019.3 mb 0.00 in0.0 mm 0.00 in0.0 mm 0.00 in0.0 mm
11:40 AM 85.1°F29.5°C 77.5°F25.3°C 78% Calm Calm 10.0 mph16.1 kmh 30.10 in1019.3 mb 0.00 in0.0 mm 0.00 in0.0 mm 0.00 in0.0 mm
11:45 AM 85.1°F29.5°C 77.1°F25.1°C 77% 1.0 mph N1.6 kmh N 10.0 mph16.1 kmh 30.10 in1019.3 mb 0.00 in0.0 mm 0.00 in0.0 mm 0.00 in0.0 mm
11:50 AM 85.1°F29.5°C 77.5°F25.3°C 78% Calm Calm 10.0 mph16.1 kmh 30.10 in1019.3 mb 0.00 in0.0 mm 0.00 in0.0 mm 0.00 in0.0 mm
11:55 AM 85.5°F29.7°C 77.9°F25.5°C 78% 4.0 mph NE6.4 kmh NE 10.0 mph16.1 kmh 30.10 in1019.3 mb 0.00 in0.0 mm 0.00 in0.0 mm 0.00 in0.0 mm
12:00 PM 85.5°F29.7°C 77.9°F25.5°C 78% Calm Calm 3.0 mph4.8 kmh 30.10 in1019.3 mb 0.00 in0.0 mm 0.00 in0.0 mm 0.00 in0.0 mm
12:05 PM 85.3°F29.6°C 78.1°F25.6°C 79% 6.0 mph NE9.7 kmh NE 11.0 mph17.7 kmh 30.10 in1019.3 mb 0.00 in0.0 mm 0.00 in0.0 mm 0.00 in0.0 mm
12:10 PM 84.6°F29.2°C 77.4°F25.2°C 79% Calm Calm 11.0 mph17.7 kmh 30.10 in1019.3 mb 0.00 in0.0 mm 0.00 in0.0 mm 0.00 in0.0 mm
12:15 PM 84.1°F28.9°C 77.3°F25.2°C 80% 5.0 mph NE8.0 kmh NE 11.0 mph17.7 kmh 30.10 in1019.3 mb 0.00 in0.0 mm 0.00 in0.0 mm 0.00 in0.0 mm
12:20 PM 84.4°F29.1°C 78.3°F25.7°C 82% 4.0 mph ENE6.4 kmh ENE 11.0 mph17.7 kmh 30.10 in1019.3 mb 0.00 in0.0 mm 0.00 in0.0 mm 0.00 in0.0 mm
12:25 PM 84.7°F29.3°C 78.2°F25.7°C 81% 1.0 mph E1.6 kmh E 11.0 mph17.7 kmh 30.09 in1019.0 mb 0.00 in0.0 mm 0.00 in0.0 mm 0.00 in0.0 mm
12:30 PM 84.9°F29.4°C 77.7°F25.4°C 79% Calm Calm 11.0 mph17.7 kmh 30.09 in1019.0 mb 0.00 in0.0 mm 0.00 in0.0 mm 0.00 in0.0 mm
12:35 PM 85.2°F29.6°C 77.6°F25.3°C 78% Calm Calm 11.0 mph17.7 kmh 30.09 in1019.0 mb 0.00 in0.0 mm 0.00 in0.0 mm 0.00 in0.0 mm
12:40 PM 85.4°F29.7°C 78.2°F25.7°C 79% Calm Calm 11.0 mph17.7 kmh 30.09 in1019.0 mb 0.00 in0.0 mm 0.00 in0.0 mm 0.00 in0.0 mm
12:45 PM 85.2°F29.6°C 77.6°F25.3°C 78% Calm Calm 12.0 mph19.3 kmh 30.08 in1018.6 mb 0.00 in0.0 mm 0.00 in0.0 mm 0.00 in0.0 mm
12:50 PM 85.1°F29.5°C 81.8°F27.7°C 90% 8.0 mph NNE12.9 kmh NNE 12.0 mph19.3 kmh 30.08 in1018.6 mb 0.00 in0.0 mm 0.00 in0.0 mm 0.00 in0.0 mm
12:55 PM 84.9°F29.4°C 76.9°F24.9°C 77% 4.0 mph N6.4 kmh N 12.0 mph19.3 kmh 30.09 in1019.0 mb 0.00 in0.0 mm 0.00 in0.0 mm 0.00 in0.0 mm
01:00 PM 85.1°F29.5°C 77.1°F25.1°C 77% Calm Calm -- 30.09 in1019.0 mb 0.00 in0.0 mm 0.00 in0.0 mm 0.00 in0.0 mm
01:05 PM 85.3°F29.6°C 77.7°F25.4°C 78% 5.0 mph ENE8.0 kmh ENE 12.0 mph19.3 kmh 30.08 in1018.6 mb 0.00 in0.0 mm 0.00 in0.0 mm 0.00 in0.0 mm
01:10 PM 85.2°F29.6°C 77.2°F25.1°C 77% 5.0 mph NNE8.0 kmh NNE 12.0 mph19.3 kmh 30.08 in1018.6 mb 0.00 in0.0 mm 0.00 in0.0 mm 0.00 in0.0 mm
01:15 PM 85.5°F29.7°C 77.9°F25.5°C 78% 8.0 mph NE12.9 kmh NE 12.0 mph19.3 kmh 30.08 in1018.6 mb 0.00 in0.0 mm 0.00 in0.0 mm 0.00 in0.0 mm
01:20 PM 85.3°F29.6°C 77.3°F25.2°C 77% 5.0 mph E8.0 kmh E 12.0 mph19.3 kmh 30.08 in1018.6 mb 0.00 in0.0 mm 0.00 in0.0 mm 0.00 in0.0 mm
01:25 PM 85.1°F29.5°C 77.1°F25.1°C 77% 6.0 mph NE9.7 kmh NE 12.0 mph19.3 kmh 30.09 in1019.0 mb 0.00 in0.0 mm 0.00 in0.0 mm 0.00 in0.0 mm
01:30 PM 85.3°F29.6°C 76.9°F24.9°C 76% 2.0 mph NE3.2 kmh NE 12.0 mph19.3 kmh 30.08 in1018.6 mb 0.00 in0.0 mm 0.00 in0.0 mm 0.00 in0.0 mm
01:35 PM 85.4°F29.7°C 77.0°F25.0°C 76% Calm Calm 12.0 mph19.3 kmh 30.07 in1018.3 mb 0.00 in0.0 mm 0.00 in0.0 mm 0.00 in0.0 mm
01:40 PM 85.5°F29.7°C 77.1°F25.1°C 76% 3.0 mph NE4.8 kmh NE 12.0 mph19.3 kmh 30.07 in1018.3 mb 0.00 in0.0 mm 0.00 in0.0 mm 0.00 in0.0 mm
01:45 PM 85.9°F29.9°C 77.9°F25.5°C 77% 6.0 mph NNE9.7 kmh NNE 12.0 mph19.3 kmh 30.07 in1018.3 mb 0.00 in0.0 mm 0.00 in0.0 mm 0.00 in0.0 mm
01:50 PM 86.2°F30.1°C 78.2°F25.7°C 77% 8.0 mph NE12.9 kmh NE 12.0 mph19.3 kmh 30.06 in1017.9 mb 0.00 in0.0 mm 0.00 in0.0 mm 0.00 in0.0 mm
01:55 PM 85.6°F29.8°C 78.0°F25.6°C 78% 3.0 mph ENE4.8 kmh ENE 12.0 mph19.3 kmh 30.07 in1018.3 mb 0.00 in0.0 mm 0.00 in0.0 mm 0.00 in0.0 mm
02:00 PM 85.0°F29.4°C 77.4°F25.2°C 78% Calm Calm 1.0 mph1.6 kmh 30.07 in1018.3 mb 0.00 in0.0 mm 0.00 in0.0 mm 0.00 in0.0 mm
02:05 PM 84.7°F29.3°C 76.7°F24.8°C 77% Calm Calm 9.0 mph14.5 kmh 30.07 in1018.3 mb 0.00 in0.0 mm 0.00 in0.0 mm 0.00 in0.0 mm
02:10 PM 84.8°F29.3°C 76.8°F24.9°C 77% 5.0 mph NE8.0 kmh NE 9.0 mph14.5 kmh 30.07 in1018.3 mb 0.00 in0.0 mm 0.00 in0.0 mm 0.00 in0.0 mm
02:15 PM 85.1°F29.5°C 77.1°F25.1°C 77% 3.0 mph NNE4.8 kmh NNE 9.0 mph14.5 kmh 30.06 in1017.9 mb 0.00 in0.0 mm 0.00 in0.0 mm 0.00 in0.0 mm
02:20 PM 85.4°F29.7°C 78.2°F25.7°C 79% Calm Calm 9.0 mph14.5 kmh 30.06 in1017.9 mb 0.00 in0.0 mm 0.00 in0.0 mm 0.00 in0.0 mm
02:25 PM 85.7°F29.8°C 78.1°F25.6°C 78% Calm Calm 9.0 mph14.5 kmh 30.06 in1017.9 mb 0.00 in0.0 mm 0.00 in0.0 mm 0.00 in0.0 mm
02:30 PM 85.7°F29.8°C 78.1°F25.6°C 78% Calm Calm 9.0 mph14.5 kmh 30.06 in1017.9 mb 0.00 in0.0 mm 0.00 in0.0 mm 0.00 in0.0 mm
02:35 PM 85.9°F29.9°C 77.9°F25.5°C 77% Calm Calm 10.0 mph16.1 kmh 30.06 in1017.9 mb 0.00 in0.0 mm 0.00 in0.0 mm 0.00 in0.0 mm
02:40 PM 86.4°F30.2°C 79.1°F26.2°C 79% Calm Calm 10.0 mph16.1 kmh 30.06 in1017.9 mb 0.00 in0.0 mm 0.00 in0.0 mm 0.00 in0.0 mm
02:45 PM 85.9°F29.9°C 78.3°F25.7°C 78% Calm Calm 11.0 mph17.7 kmh 30.06 in1017.9 mb 0.00 in0.0 mm 0.00 in0.0 mm 0.00 in0.0 mm
02:50 PM 85.8°F29.9°C 77.8°F25.4°C 77% Calm Calm 11.0 mph17.7 kmh 30.05 in1017.6 mb 0.00 in0.0 mm 0.00 in0.0 mm 0.00 in0.0 mm
02:55 PM 86.2°F30.1°C 78.2°F25.7°C 77% 1.0 mph NE1.6 kmh NE 13.0 mph20.9 kmh 30.06 in1017.9 mb 0.00 in0.0 mm 0.00 in0.0 mm 0.00 in0.0 mm
03:00 PM 86.2°F30.1°C 78.2°F25.7°C 77% Calm Calm -- 30.06 in1017.9 mb 0.00 in0.0 mm 0.00 in0.0 mm 0.00 in0.0 mm
03:05 PM 85.8°F29.9°C 77.8°F25.4°C 77% Calm Calm 8.0 mph12.9 kmh 30.06 in1017.9 mb 0.00 in0.0 mm 0.00 in0.0 mm 0.00 in0.0 mm
03:10 PM 85.3°F29.6°C 78.8°F26.0°C 81% Calm Calm 8.0 mph12.9 kmh 30.04 in1017.3 mb 0.00 in0.0 mm 0.00 in0.0 mm 0.00 in0.0 mm
03:15 PM 85.7°F29.8°C 78.1°F25.6°C 78% Calm Calm 8.0 mph12.9 kmh 30.04 in1017.3 mb 0.00 in0.0 mm 0.00 in0.0 mm 0.00 in0.0 mm
03:20 PM 86.2°F30.1°C 78.2°F25.7°C 77% Calm Calm 8.0 mph12.9 kmh 30.05 in1017.6 mb 0.00 in0.0 mm 0.00 in0.0 mm 0.00 in0.0 mm
03:25 PM 86.1°F30.1°C 77.3°F25.2°C 75% 3.0 mph NE4.8 kmh NE 9.0 mph14.5 kmh 30.06 in1017.9 mb 0.00 in0.0 mm 0.00 in0.0 mm 0.00 in0.0 mm
03:30 PM 85.4°F29.7°C 77.0°F25.0°C 76% Calm Calm 9.0 mph14.5 kmh 30.05 in1017.6 mb 0.00 in0.0 mm 0.00 in0.0 mm 0.00 in0.0 mm
03:35 PM 84.7°F29.3°C 76.7°F24.8°C 77% Calm Calm 9.0 mph14.5 kmh 30.05 in1017.6 mb 0.00 in0.0 mm 0.00 in0.0 mm 0.00 in0.0 mm
03:40 PM 84.2°F29.0°C 76.6°F24.8°C 78% Calm Calm 9.0 mph14.5 kmh 30.05 in1017.6 mb 0.00 in0.0 mm 0.00 in0.0 mm 0.00 in0.0 mm
03:45 PM 84.2°F29.0°C 77.4°F25.2°C 80% Calm Calm 9.0 mph14.5 kmh 30.07 in1018.3 mb 0.00 in0.0 mm 0.00 in0.0 mm 0.00 in0.0 mm
03:50 PM 84.3°F29.1°C 77.5°F25.3°C 80% Calm Calm 9.0 mph14.5 kmh 30.06 in1017.9 mb 0.00 in0.0 mm 0.00 in0.0 mm 0.00 in0.0 mm
03:55 PM 84.3°F29.1°C 77.5°F25.3°C 80% Calm Calm 9.0 mph14.5 kmh 30.06 in1017.9 mb 0.00 in0.0 mm 0.00 in0.0 mm 0.00 in0.0 mm
04:00 PM 84.4°F29.1°C 76.8°F24.9°C 78% Calm Calm 5.0 mph8.0 kmh 30.06 in1017.9 mb 0.00 in0.0 mm 0.00 in0.0 mm 0.00 in0.0 mm
04:05 PM 84.3°F29.1°C 77.1°F25.1°C 79% 6.0 mph SE9.7 kmh SE 9.0 mph14.5 kmh 30.05 in1017.6 mb 0.00 in0.0 mm 0.00 in0.0 mm 0.00 in0.0 mm
04:10 PM 84.3°F29.1°C 77.1°F25.1°C 79% 4.0 mph E6.4 kmh E 12.0 mph19.3 kmh 30.04 in1017.3 mb 0.00 in0.0 mm 0.00 in0.0 mm 0.00 in0.0 mm
04:15 PM 84.2°F29.0°C 77.0°F25.0°C 79% 5.0 mph ESE8.0 kmh ESE 12.0 mph19.3 kmh 30.04 in1017.3 mb 0.00 in0.0 mm 0.00 in0.0 mm 0.00 in0.0 mm
04:20 PM 84.3°F29.1°C 77.1°F25.1°C 79% Calm Calm 13.0 mph20.9 kmh 30.04 in1017.3 mb 0.00 in0.0 mm 0.00 in0.0 mm 0.00 in0.0 mm
04:25 PM 84.3°F29.1°C 77.1°F25.1°C 79% Calm Calm 13.0 mph20.9 kmh 30.04 in1017.3 mb 0.00 in0.0 mm 0.00 in0.0 mm 0.00 in0.0 mm
04:30 PM 84.1°F28.9°C 76.9°F24.9°C 79% Calm Calm 13.0 mph20.9 kmh 30.03 in1016.9 mb 0.00 in0.0 mm 0.00 in0.0 mm 0.00 in0.0 mm
04:35 PM 83.9°F28.8°C 77.1°F25.1°C 80% Calm Calm 13.0 mph20.9 kmh 30.05 in1017.6 mb 0.00 in0.0 mm 0.00 in0.0 mm 0.00 in0.0 mm
04:40 PM 83.8°F28.8°C 76.6°F24.8°C 79% 6.0 mph ESE9.7 kmh ESE 13.0 mph20.9 kmh 30.05 in1017.6 mb 0.00 in0.0 mm 0.00 in0.0 mm 0.00 in0.0 mm
04:45 PM 83.7°F28.7°C 76.1°F24.5°C 78% Calm Calm 13.0 mph20.9 kmh 30.03 in1016.9 mb 0.00 in0.0 mm 0.00 in0.0 mm 0.00 in0.0 mm
04:50 PM 83.7°F28.7°C 76.1°F24.5°C 78% 5.0 mph SE8.0 kmh SE 13.0 mph20.9 kmh 30.04 in1017.3 mb 0.00 in0.0 mm 0.00 in0.0 mm 0.00 in0.0 mm
04:55 PM 83.8°F28.8°C 76.6°F24.8°C 79% Calm Calm 13.0 mph20.9 kmh 30.05 in1017.6 mb 0.00 in0.0 mm 0.00 in0.0 mm 0.00 in0.0 mm
05:00 PM 83.9°F28.8°C 76.7°F24.8°C 79% Calm Calm -- 30.05 in1017.6 mb 0.00 in0.0 mm 0.00 in0.0 mm 0.00 in0.0 mm
05:05 PM 84.0°F28.9°C 76.4°F24.7°C 78% 5.0 mph SE8.0 kmh SE 7.0 mph11.3 kmh 30.04 in1017.3 mb 0.00 in0.0 mm 0.00 in0.0 mm 0.00 in0.0 mm
05:10 PM 83.9°F28.8°C 75.9°F24.4°C 77% Calm Calm 8.0 mph12.9 kmh 30.05 in1017.6 mb 0.00 in0.0 mm 0.00 in0.0 mm 0.00 in0.0 mm
05:15 PM 84.0°F28.9°C 76.0°F24.4°C 77% Calm Calm 8.0 mph12.9 kmh 30.05 in1017.6 mb 0.00 in0.0 mm 0.00 in0.0 mm 0.00 in0.0 mm
05:20 PM 84.0°F28.9°C 76.0°F24.4°C 77% Calm Calm 8.0 mph12.9 kmh 30.05 in1017.6 mb 0.00 in0.0 mm 0.00 in0.0 mm 0.00 in0.0 mm
05:25 PM 83.9°F28.8°C 76.7°F24.8°C 79% Calm Calm 8.0 mph12.9 kmh 30.05 in1017.6 mb 0.00 in0.0 mm 0.00 in0.0 mm 0.00 in0.0 mm
05:30 PM 83.9°F28.8°C 75.5°F24.2°C 76% Calm Calm 8.0 mph12.9 kmh 30.06 in1017.9 mb 0.00 in0.0 mm 0.00 in0.0 mm 0.00 in0.0 mm
05:35 PM 84.0°F28.9°C 75.6°F24.2°C 76% Calm Calm 8.0 mph12.9 kmh 30.06 in1017.9 mb 0.00 in0.0 mm 0.00 in0.0 mm 0.00 in0.0 mm
05:40 PM 84.0°F28.9°C 76.0°F24.4°C 77% Calm Calm 8.0 mph12.9 kmh 30.06 in1017.9 mb 0.00 in0.0 mm 0.00 in0.0 mm 0.00 in0.0 mm
05:45 PM 84.0°F28.9°C 76.0°F24.4°C 77% 6.0 mph WSW9.7 kmh WSW 8.0 mph12.9 kmh 30.07 in1018.3 mb 0.00 in0.0 mm 0.00 in0.0 mm 0.00 in0.0 mm
05:50 PM 83.6°F28.7°C 75.2°F24.0°C 76% 1.0 mph W1.6 kmh W 8.0 mph12.9 kmh 30.08 in1018.6 mb 0.00 in0.0 mm 0.00 in0.0 mm 0.00 in0.0 mm
05:55 PM 83.0°F28.3°C 75.1°F23.9°C 77% 3.0 mph SSW4.8 kmh SSW 8.0 mph12.9 kmh 30.07 in1018.3 mb 0.00 in0.0 mm 0.00 in0.0 mm 0.00 in0.0 mm
06:00 PM 82.6°F28.1°C 74.3°F23.5°C 76% Calm Calm -- 30.07 in1018.3 mb 0.00 in0.0 mm 0.00 in0.0 mm 0.00 in0.0 mm
06:05 PM 82.2°F27.9°C 73.9°F23.3°C 76% Calm Calm -- 30.08 in1018.6 mb 0.00 in0.0 mm 0.00 in0.0 mm 0.00 in0.0 mm
06:10 PM 81.7°F27.6°C 74.2°F23.4°C 78% 1.0 mph SW1.6 kmh SW 7.0 mph11.3 kmh 30.08 in1018.6 mb 0.00 in0.0 mm 0.00 in0.0 mm 0.00 in0.0 mm
06:15 PM 81.3°F27.4°C 74.2°F23.4°C 79% 6.0 mph SW9.7 kmh SW 11.0 mph17.7 kmh 30.07 in1018.3 mb 0.00 in0.0 mm 0.00 in0.0 mm 0.00 in0.0 mm
06:20 PM 81.1°F27.3°C 73.6°F23.1°C 78% 7.0 mph SW11.3 kmh SW 11.0 mph17.7 kmh 30.07 in1018.3 mb 0.00 in0.0 mm 0.00 in0.0 mm 0.00 in0.0 mm
06:25 PM 80.8°F27.1°C 76.6°F24.8°C 87% 1.0 mph S1.6 kmh S 11.0 mph17.7 kmh 30.08 in1018.6 mb 0.00 in0.0 mm 0.00 in0.0 mm 0.00 in0.0 mm
06:30 PM 80.5°F26.9°C 73.4°F23.0°C 79% Calm Calm 11.0 mph17.7 kmh 30.08 in1018.6 mb 0.00 in0.0 mm 0.00 in0.0 mm 0.00 in0.0 mm
06:35 PM 80.1°F26.7°C 73.4°F23.0°C 80% Calm Calm 11.0 mph17.7 kmh 30.08 in1018.6 mb 0.00 in0.0 mm 0.00 in0.0 mm 0.00 in0.0 mm
06:40 PM 79.8°F26.6°C 73.1°F22.8°C 80% 7.0 mph SW11.3 kmh SW 11.0 mph17.7 kmh 30.08 in1018.6 mb 0.00 in0.0 mm 0.00 in0.0 mm 0.00 in0.0 mm
06:45 PM 79.5°F26.4°C 72.8°F22.7°C 80% Calm Calm 11.0 mph17.7 kmh 30.08 in1018.6 mb 0.00 in0.0 mm 0.00 in0.0 mm 0.00 in0.0 mm
06:50 PM 79.3°F26.3°C 72.6°F22.6°C 80% Calm Calm 11.0 mph17.7 kmh 30.08 in1018.6 mb 0.00 in0.0 mm 0.00 in0.0 mm 0.00 in0.0 mm
06:55 PM 79.2°F26.2°C 72.9°F22.7°C 81% Calm Calm 11.0 mph17.7 kmh 30.08 in1018.6 mb 0.00 in0.0 mm 0.00 in0.0 mm 0.00 in0.0 mm
07:00 PM 79.1°F26.2°C 73.1°F22.8°C 82% Calm Calm -- 30.07 in1018.3 mb 0.00 in0.0 mm 0.00 in0.0 mm 0.00 in0.0 mm
07:05 PM 79.0°F26.1°C 75.2°F24.0°C 88% Calm Calm -- 30.08 in1018.6 mb 0.00 in0.0 mm 0.00 in0.0 mm 0.00 in0.0 mm
07:10 PM 79.0°F26.1°C 74.1°F23.4°C 85% Calm Calm -- 30.08 in1018.6 mb 0.00 in0.0 mm 0.00 in0.0 mm 0.00 in0.0 mm
07:15 PM 78.9°F26.1°C 74.4°F23.6°C 86% Calm Calm -- 30.09 in1019.0 mb 0.00 in0.0 mm 0.00 in0.0 mm 0.00 in0.0 mm
07:20 PM 78.7°F25.9°C 74.9°F23.8°C 88% Calm Calm -- 30.09 in1019.0 mb 0.00 in0.0 mm 0.00 in0.0 mm 0.00 in0.0 mm
07:25 PM 78.6°F25.9°C 74.8°F23.8°C 88% Calm Calm -- 30.10 in1019.3 mb 0.00 in0.0 mm 0.00 in0.0 mm 0.00 in0.0 mm
07:30 PM 78.5°F25.8°C 74.0°F23.3°C 86% Calm Calm -- 30.10 in1019.3 mb 0.00 in0.0 mm 0.00 in0.0 mm 0.00 in0.0 mm
07:35 PM 78.4°F25.8°C 74.2°F23.4°C 87% Calm Calm -- 30.10 in1019.3 mb 0.00 in0.0 mm 0.00 in0.0 mm 0.00 in0.0 mm
07:40 PM 78.2°F25.7°C 74.7°F23.7°C 89% Calm Calm -- 30.10 in1019.3 mb 0.00 in0.0 mm 0.00 in0.0 mm 0.00 in0.0 mm
07:45 PM 78.1°F25.6°C 74.3°F23.5°C 88% Calm Calm -- 30.10 in1019.3 mb 0.01 in0.3 mm 0.12 in3.0 mm 0.01 in0.3 mm
07:50 PM 78.0°F25.6°C 74.2°F23.4°C 88% Calm Calm -- 30.10 in1019.3 mb 0.01 in0.3 mm 0.00 in0.0 mm 0.01 in0.3 mm
07:55 PM 77.6°F25.3°C 73.8°F23.2°C 88% Calm Calm -- 30.10 in1019.3 mb 0.01 in0.3 mm 0.00 in0.0 mm 0.01 in0.3 mm
08:00 PM 77.4°F25.2°C 73.9°F23.3°C 89% Calm Calm -- 30.09 in1019.0 mb 0.01 in0.3 mm 0.00 in0.0 mm 0.01 in0.3 mm
08:05 PM 77.3°F25.2°C 73.8°F23.2°C 89% Calm Calm -- 30.09 in1019.0 mb 0.02 in0.5 mm 0.12 in3.0 mm 0.02 in0.5 mm
08:10 PM 77.2°F25.1°C 74.0°F23.3°C 90% Calm Calm -- 30.10 in1019.3 mb 0.02 in0.5 mm 0.00 in0.0 mm 0.02 in0.5 mm
08:15 PM 77.0°F25.0°C 73.9°F23.3°C 90% Calm Calm -- 30.09 in1019.0 mb 0.02 in0.5 mm 0.00 in0.0 mm 0.02 in0.5 mm
08:20 PM 76.8°F24.9°C 73.7°F23.2°C 90% Calm Calm -- 30.09 in1019.0 mb 0.02 in0.5 mm 0.00 in0.0 mm 0.02 in0.5 mm
08:25 PM 76.8°F24.9°C 74.0°F23.3°C 91% Calm Calm -- 30.09 in1019.0 mb 0.02 in0.5 mm 0.00 in0.0 mm 0.02 in0.5 mm
08:30 PM 76.7°F24.8°C 73.9°F23.3°C 91% Calm Calm -- 30.10 in1019.3 mb 0.02 in0.5 mm 0.00 in0.0 mm 0.02 in0.5 mm
08:35 PM 76.5°F24.7°C 73.7°F23.2°C 91% Calm Calm -- 30.09 in1019.0 mb 0.02 in0.5 mm 0.00 in0.0 mm 0.02 in0.5 mm
08:40 PM 76.4°F24.7°C 73.6°F23.1°C 91% Calm Calm -- 30.08 in1018.6 mb 0.02 in0.5 mm 0.00 in0.0 mm 0.02 in0.5 mm
08:45 PM 76.4°F24.7°C 73.6°F23.1°C 91% Calm Calm -- 30.09 in1019.0 mb 0.02 in0.5 mm 0.00 in0.0 mm 0.02 in0.5 mm
08:50 PM 76.4°F24.7°C 73.6°F23.1°C 91% Calm Calm -- 30.09 in1019.0 mb 0.02 in0.5 mm 0.00 in0.0 mm 0.02 in0.5 mm
08:55 PM 76.3°F24.6°C 73.8°F23.2°C 92% Calm Calm -- 30.09 in1019.0 mb 0.02 in0.5 mm 0.00 in0.0 mm 0.02 in0.5 mm
09:00 PM 76.3°F24.6°C 73.8°F23.2°C 92% Calm Calm -- 30.10 in1019.3 mb 0.01 in0.3 mm 0.00 in0.0 mm 0.02 in0.5 mm
09:05 PM 76.3°F24.6°C 73.8°F23.2°C 92% Calm Calm -- 30.09 in1019.0 mb 0.01 in0.3 mm 0.00 in0.0 mm 0.02 in0.5 mm
09:10 PM 76.4°F24.7°C 73.9°F23.3°C 92% Calm Calm -- 30.09 in1019.0 mb 0.01 in0.3 mm 0.00 in0.0 mm 0.02 in0.5 mm
09:15 PM 76.4°F24.7°C 75.2°F24.0°C 96% Calm Calm -- 30.09 in1019.0 mb 0.01 in0.3 mm 0.00 in0.0 mm 0.02 in0.5 mm
09:20 PM 76.5°F24.7°C 74.0°F23.3°C 92% Calm Calm -- 30.09 in1019.0 mb 0.01 in0.3 mm 0.00 in0.0 mm 0.02 in0.5 mm
09:25 PM 76.6°F24.8°C 74.1°F23.4°C 92% Calm Calm -- 30.09 in1019.0 mb 0.01 in0.3 mm 0.00 in0.0 mm 0.02 in0.5 mm
09:30 PM 76.6°F24.8°C 74.1°F23.4°C 92% Calm Calm -- 30.09 in1019.0 mb 0.01 in0.3 mm 0.00 in0.0 mm 0.02 in0.5 mm
09:35 PM 76.7°F24.8°C 74.2°F23.4°C 92% Calm Calm -- 30.10 in1019.3 mb 0.01 in0.3 mm 0.00 in0.0 mm 0.02 in0.5 mm
09:40 PM 76.7°F24.8°C 74.5°F23.6°C 93% Calm Calm -- 30.10 in1019.3 mb 0.01 in0.3 mm 0.00 in0.0 mm 0.02 in0.5 mm
09:45 PM 76.7°F24.8°C 74.2°F23.4°C 92% Calm Calm -- 30.09 in1019.0 mb 0.01 in0.3 mm 0.00 in0.0 mm 0.02 in0.5 mm
09:50 PM 76.7°F24.8°C 74.5°F23.6°C 93% Calm Calm -- 30.09 in1019.0 mb 0.01 in0.3 mm 0.00 in0.0 mm 0.02 in0.5 mm
09:55 PM 76.7°F24.8°C 74.9°F23.8°C 94% Calm Calm -- 30.08 in1018.6 mb 0.01 in0.3 mm 0.00 in0.0 mm 0.02 in0.5 mm
10:00 PM 76.7°F24.8°C 74.9°F23.8°C 94% Calm Calm -- 30.08 in1018.6 mb 0.00 in0.0 mm 0.00 in0.0 mm 0.02 in0.5 mm
10:05 PM 76.7°F24.8°C 74.2°F23.4°C 92% Calm Calm -- 30.08 in1018.6 mb 0.00 in0.0 mm 0.00 in0.0 mm 0.02 in0.5 mm
10:10 PM 76.7°F24.8°C 74.5°F23.6°C 93% Calm Calm -- 30.08 in1018.6 mb 0.00 in0.0 mm 0.00 in0.0 mm 0.02 in0.5 mm
10:15 PM 76.7°F24.8°C 74.2°F23.4°C 92% Calm Calm -- 30.08 in1018.6 mb 0.00 in0.0 mm 0.00 in0.0 mm 0.02 in0.5 mm
10:20 PM 76.7°F24.8°C 74.2°F23.4°C 92% Calm Calm -- 30.08 in1018.6 mb 0.00 in0.0 mm 0.00 in0.0 mm 0.02 in0.5 mm
10:25 PM 76.7°F24.8°C 74.2°F23.4°C 92% Calm Calm -- 30.07 in1018.3 mb 0.00 in0.0 mm 0.00 in0.0 mm 0.02 in0.5 mm
10:30 PM 76.6°F24.8°C 74.1°F23.4°C 92% Calm Calm -- 30.08 in1018.6 mb 0.00 in0.0 mm 0.00 in0.0 mm 0.02 in0.5 mm
10:35 PM 76.6°F24.8°C 74.1°F23.4°C 92% Calm Calm -- 30.07 in1018.3 mb 0.00 in0.0 mm 0.00 in0.0 mm 0.02 in0.5 mm
10:40 PM 76.6°F24.8°C 74.1°F23.4°C 92% Calm Calm -- 30.08 in1018.6 mb 0.00 in0.0 mm 0.00 in0.0 mm 0.02 in0.5 mm
10:45 PM 76.6°F24.8°C 74.1°F23.4°C 92% Calm Calm -- 30.08 in1018.6 mb 0.00 in0.0 mm 0.00 in0.0 mm 0.02 in0.5 mm
10:50 PM 76.5°F24.7°C 74.0°F23.3°C 92% Calm Calm -- 30.07 in1018.3 mb 0.00 in0.0 mm 0.00 in0.0 mm 0.02 in0.5 mm
10:55 PM 76.4°F24.7°C 73.9°F23.3°C 92% Calm Calm -- 30.07 in1018.3 mb 0.00 in0.0 mm 0.00 in0.0 mm 0.02 in0.5 mm
11:00 PM 76.4°F24.7°C 73.9°F23.3°C 92% Calm Calm -- 30.06 in1017.9 mb 0.00 in0.0 mm 0.00 in0.0 mm 0.02 in0.5 mm
11:05 PM 76.4°F24.7°C 73.9°F23.3°C 92% Calm Calm -- 30.06 in1017.9 mb 0.00 in0.0 mm 0.00 in0.0 mm 0.02 in0.5 mm
11:10 PM 76.4°F24.7°C 73.9°F23.3°C 92% Calm Calm -- 30.07 in1018.3 mb 0.00 in0.0 mm 0.00 in0.0 mm 0.02 in0.5 mm
11:15 PM 76.4°F24.7°C 73.9°F23.3°C 92% Calm Calm -- 30.07 in1018.3 mb 0.00 in0.0 mm 0.00 in0.0 mm 0.02 in0.5 mm
11:20 PM 76.4°F24.7°C 73.9°F23.3°C 92% Calm Calm -- 30.07 in1018.3 mb 0.00 in0.0 mm 0.00 in0.0 mm 0.02 in0.5 mm
11:25 PM 76.4°F24.7°C 73.9°F23.3°C 92% Calm Calm -- 30.07 in1018.3 mb 0.00 in0.0 mm 0.00 in0.0 mm 0.02 in0.5 mm
11:30 PM 76.2°F24.6°C 73.7°F23.2°C 92% Calm Calm -- 30.07 in1018.3 mb 0.00 in0.0 mm 0.00 in0.0 mm 0.02 in0.5 mm
11:35 PM 76.1°F24.5°C 73.3°F22.9°C 91% Calm Calm -- 30.06 in1017.9 mb 0.00 in0.0 mm 0.00 in0.0 mm 0.02 in0.5 mm
11:40 PM 76.0°F24.4°C 73.5°F23.1°C 92% Calm Calm -- 30.06 in1017.9 mb 0.00 in0.0 mm 0.00 in0.0 mm 0.02 in0.5 mm
11:45 PM 75.9°F24.4°C 73.4°F23.0°C 92% Calm Calm -- 30.06 in1017.9 mb 0.00 in0.0 mm 0.00 in0.0 mm 0.02 in0.5 mm
11:50 PM 75.8°F24.3°C 73.3°F22.9°C 92% Calm Calm -- 30.07 in1018.3 mb 0.00 in0.0 mm 0.00 in0.0 mm 0.02 in0.5 mm
11:55 PM 75.8°F24.3°C 73.3°F22.9°C 92% Calm Calm -- 30.06 in1017.9 mb 0.00 in0.0 mm 0.00 in0.0 mm 0.02 in0.5 mm